• Join FlightAware (Why Join?)
  • Login
  • US Flag 
09:56AM EDT


 

Airport Tracker/Info


-or-


 

Live Flight TrackerFlight Track Log ✈ KAP2826 ✈ 07-May-2013 ✈ KBOS - KACK

Flight Track Log - Related Links

Times and Time Zones

All times are in EDT time to prevent confusion due to time zone crossing. See the KAP2826 flight status page for this flight to view local times or setup timezone preferences in your user account.

Time Position Orientation Groundspeed Altitude Reporting Facility
EDT Latitude Longitude Course Direction KTS MPH feet Rate Location/Type
09:18AM 42.3500 -71.0167 360° North 125 144 500  Level KA90
09:18AM 42.3500 -71.0167 216° Southwest 115 132 700 540 Climbing KA90
09:19AM 42.3167 -71.0500 216° Southwest 118 136 1,300 540 Climbing KA90
09:20AM 42.3000 -71.0833 236° Southwest 121 139 1,900 540 Climbing KA90
09:21AM 42.2667 -71.1167 217° Southwest 124 143 2,400 480 Climbing KA90
09:22AM 42.2500 -71.1333 217° Southwest 125 144 2,800 420 Climbing KA90
09:23AM 42.2167 -71.1000 143° Southeast 128 147 3,300 420 Climbing KA90
09:24AM 42.1833 -71.0833 160° South 130 150 3,800 480 Climbing KA90
09:25AM 42.1500 -71.0500 143° Southeast 134 154 4,300 420 Climbing KA90
09:26AM 42.1167 -71.0167 143° Southeast 138 159 4,700 300 Climbing KA90
09:27AM 42.1000 -70.9833 124° Southeast 139 160 5,000 120 Climbing KA90
09:28AM 42.0667 -70.9500 143° Southeast 154 177 5,000  Level KA90
09:29AM 42.0333 -70.9167 143° Southeast 154 177 5,000  Level KA90
09:31AM 41.9948 -70.8737 140° Southeast  Level Estimated
09:38AM 41.7945 -70.6515 140° Southeast  Level Estimated
09:39AM 41.7658 -70.6199 141° Southeast  Level Estimated
09:40AM 41.7372 -70.5883 141° Southeast  Level Estimated
09:41AM 41.7085 -70.5568 141° Southeast  Level Estimated
09:42AM 41.6798 -70.5252 141° Southeast  Level Estimated
09:43AM 41.6511 -70.4937 141° Southeast  Level Estimated
09:44AM 41.6225 -70.4622 141° Southeast  Level Estimated
09:45AM 41.5938 -70.4308 141° Southeast  Level Estimated
09:46AM 41.5650 -70.3994 141° Southeast  Level Estimated
09:47AM 41.5363 -70.3680 141° Southeast  Level Estimated
09:48AM 41.5076 -70.3366 141° Southeast  Level Estimated
09:49AM 41.4789 -70.3053 141° Southeast  Level Estimated
09:50AM 41.4501 -70.2739 141° Southeast  Level Estimated
09:51AM 41.4214 -70.2427 141° Southeast  Level Estimated
09:52AM 41.3926 -70.2114 141° Southeast  Level Estimated
09:53AM 41.3639 -70.1802 141° Southeast  Level Estimated
09:54AM 41.3351 -70.1490 141° Southeast  Level Estimated
09:55AM 41.3063 -70.1178 141° Southeast  Level Estimated
09:56AM 41.2775 -70.0867 141° Southeast  Level Estimated
09:57AM 41.2531 -70.0603 141° Southeast  Level Estimated
09:58AM 41.2531 -70.0603 72° East  Level Estimated
09:59AM 41.2531 -70.0603 72° East  Level Estimated
10:00AM 41.2531 -70.0603 72° East  Level Estimated
10:01AM 41.2531 -70.0603 72° East  Level Estimated
10:02AM 41.2531 -70.0603 72° East  Level Estimated
10:03AM 41.2531 -70.0603 72° East  Level Estimated
10:04AM 41.2531 -70.0603 72° East  Level Estimated